sensor_id;sensor_type;location;lat;lon;timestamp;P1;durP1;ratioP1;P2;durP2;ratioP2
69172;SDS011;56280;49.662;8.408;2023-04-03T00:01:30;17.95;;;16.63;;
69172;SDS011;56280;49.662;8.408;2023-04-03T00:03:55;19.57;;;18.27;;
69172;SDS011;56280;49.662;8.408;2023-04-03T00:06:21;19.70;;;18.40;;
69172;SDS011;56280;49.662;8.408;2023-04-03T00:08:47;18.75;;;17.45;;
69172;SDS011;56280;49.662;8.408;2023-04-03T00:11:13;18.93;;;17.63;;
69172;SDS011;56280;49.662;8.408;2023-04-03T00:13:39;16.67;;;15.47;;
69172;SDS011;56280;49.662;8.408;2023-04-03T00:16:05;18.90;;;17.70;;
69172;SDS011;56280;49.662;8.408;2023-04-03T00:18:32;19.17;;;17.88;;
69172;SDS011;56280;49.662;8.408;2023-04-03T00:20:57;18.60;;;17.40;;
69172;SDS011;56280;49.662;8.408;2023-04-03T00:23:22;17.30;;;16.10;;
69172;SDS011;56280;49.662;8.408;2023-04-03T00:25:48;20.43;;;19.07;;
69172;SDS011;56280;49.662;8.408;2023-04-03T00:28:14;16.08;;;14.88;;
69172;SDS011;56280;49.662;8.408;2023-04-03T00:30:40;18.67;;;17.40;;
69172;SDS011;56280;49.662;8.408;2023-04-03T00:33:05;19.27;;;17.87;;
69172;SDS011;56280;49.662;8.408;2023-04-03T00:35:33;20.45;;;18.98;;
69172;SDS011;56280;49.662;8.408;2023-04-03T00:38:00;18.85;;;17.45;;
69172;SDS011;56280;49.662;8.408;2023-04-03T00:40:26;16.47;;;15.27;;
69172;SDS011;56280;49.662;8.408;2023-04-03T00:42:55;18.57;;;17.27;;
69172;SDS011;56280;49.662;8.408;2023-04-03T00:47:56;22.80;;;21.20;;
69172;SDS011;56280;49.662;8.408;2023-04-03T00:50:24;20.63;;;19.23;;
69172;SDS011;56280;49.662;8.408;2023-04-03T00:52:50;20.43;;;19.03;;
69172;SDS011;56280;49.662;8.408;2023-04-03T00:55:16;21.38;;;19.88;;
69172;SDS011;56280;49.662;8.408;2023-04-03T00:57:42;20.38;;;18.88;;
69172;SDS011;56280;49.662;8.408;2023-04-03T01:00:08;19.80;;;18.47;;
69172;SDS011;56280;49.662;8.408;2023-04-03T01:02:37;19.10;;;17.60;;
69172;SDS011;56280;49.662;8.408;2023-04-03T01:05:03;20.00;;;18.60;;
69172;SDS011;56280;49.662;8.408;2023-04-03T01:07:29;18.08;;;16.88;;
69172;SDS011;56280;49.662;8.408;2023-04-03T01:09:56;20.83;;;19.48;;
69172;SDS011;56280;49.662;8.408;2023-04-03T01:12:25;19.50;;;18.00;;
69172;SDS011;56280;49.662;8.408;2023-04-03T01:14:57;22.58;;;21.17;;
69172;SDS011;56280;49.662;8.408;2023-04-03T01:20:02;20.08;;;18.73;;
69172;SDS011;56280;49.662;8.408;2023-04-03T01:22:40;20.10;;;18.70;;
69172;SDS011;56280;49.662;8.408;2023-04-03T01:25:15;20.67;;;19.20;;
69172;SDS011;56280;49.662;8.408;2023-04-03T01:27:40;19.63;;;18.30;;
69172;SDS011;56280;49.662;8.408;2023-04-03T01:30:06;18.43;;;17.20;;
69172;SDS011;56280;49.662;8.408;2023-04-03T01:32:32;19.60;;;18.20;;
69172;SDS011;56280;49.662;8.408;2023-04-03T01:34:57;16.73;;;15.53;;
69172;SDS011;56280;49.662;8.408;2023-04-03T01:37:22;18.60;;;17.27;;
69172;SDS011;56280;49.662;8.408;2023-04-03T01:39:47;18.60;;;17.30;;
69172;SDS011;56280;49.662;8.408;2023-04-03T01:42:13;18.20;;;16.90;;
69172;SDS011;56280;49.662;8.408;2023-04-03T01:44:38;18.37;;;17.07;;
69172;SDS011;56280;49.662;8.408;2023-04-03T01:47:05;19.00;;;17.63;;
69172;SDS011;56280;49.662;8.408;2023-04-03T01:49:31;17.35;;;16.25;;
69172;SDS011;56280;49.662;8.408;2023-04-03T01:51:56;18.00;;;16.70;;
69172;SDS011;56280;49.662;8.408;2023-04-03T01:54:21;16.63;;;15.33;;
69172;SDS011;56280;49.662;8.408;2023-04-03T01:56:47;17.73;;;16.47;;
69172;SDS011;56280;49.662;8.408;2023-04-03T01:59:12;18.83;;;17.50;;
69172;SDS011;56280;49.662;8.408;2023-04-03T02:01:37;18.27;;;16.80;;
69172;SDS011;56280;49.662;8.408;2023-04-03T02:04:03;19.17;;;17.90;;
69172;SDS011;56280;49.662;8.408;2023-04-03T02:06:28;17.75;;;16.45;;
69172;SDS011;56280;49.662;8.408;2023-04-03T02:08:53;20.10;;;18.70;;
69172;SDS011;56280;49.662;8.408;2023-04-03T02:11:18;20.37;;;18.93;;
69172;SDS011;56280;49.662;8.408;2023-04-03T02:13:45;18.70;;;17.37;;
69172;SDS011;56280;49.662;8.408;2023-04-03T02:16:10;18.43;;;17.13;;
69172;SDS011;56280;49.662;8.408;2023-04-03T02:18:36;18.83;;;17.52;;
69172;SDS011;56280;49.662;8.408;2023-04-03T02:21:10;18.47;;;17.07;;
69172;SDS011;56280;49.662;8.408;2023-04-03T02:23:35;18.17;;;16.77;;
69172;SDS011;56280;49.662;8.408;2023-04-03T02:26:06;17.88;;;16.58;;
69172;SDS011;56280;49.662;8.408;2023-04-03T02:28:33;16.87;;;15.57;;
69172;SDS011;56280;49.662;8.408;2023-04-03T02:30:59;16.75;;;15.55;;
69172;SDS011;56280;49.662;8.408;2023-04-03T02:33:24;16.90;;;15.67;;
69172;SDS011;56280;49.662;8.408;2023-04-03T02:35:56;17.80;;;16.40;;
69172;SDS011;56280;49.662;8.408;2023-04-03T02:38:22;16.00;;;14.70;;
69172;SDS011;56280;49.662;8.408;2023-04-03T02:40:48;16.42;;;15.23;;
69172;SDS011;56280;49.662;8.408;2023-04-03T02:43:14;17.30;;;15.97;;
69172;SDS011;56280;49.662;8.408;2023-04-03T02:45:39;16.43;;;15.23;;
69172;SDS011;56280;49.662;8.408;2023-04-03T02:48:05;17.27;;;15.97;;
69172;SDS011;56280;49.662;8.408;2023-04-03T02:50:30;15.80;;;14.60;;
69172;SDS011;56280;49.662;8.408;2023-04-03T02:52:55;14.23;;;13.13;;
69172;SDS011;56280;49.662;8.408;2023-04-03T02:55:21;14.80;;;13.50;;
69172;SDS011;56280;49.662;8.408;2023-04-03T02:57:46;15.23;;;13.93;;
69172;SDS011;56280;49.662;8.408;2023-04-03T03:00:12;15.30;;;14.20;;
69172;SDS011;56280;49.662;8.408;2023-04-03T03:02:37;14.40;;;13.30;;
69172;SDS011;56280;49.662;8.408;2023-04-03T03:05:03;15.27;;;14.00;;
69172;SDS011;56280;49.662;8.408;2023-04-03T03:07:28;15.00;;;13.77;;
69172;SDS011;56280;49.662;8.408;2023-04-03T03:09:54;15.17;;;13.87;;
69172;SDS011;56280;49.662;8.408;2023-04-03T03:12:19;16.47;;;15.23;;
69172;SDS011;56280;49.662;8.408;2023-04-03T03:14:46;14.20;;;13.10;;
69172;SDS011;56280;49.662;8.408;2023-04-03T03:17:12;13.40;;;12.27;;
69172;SDS011;56280;49.662;8.408;2023-04-03T03:19:37;15.67;;;14.37;;
69172;SDS011;56280;49.662;8.408;2023-04-03T03:22:03;16.40;;;15.10;;
69172;SDS011;56280;49.662;8.408;2023-04-03T03:24:28;15.43;;;14.20;;
69172;SDS011;56280;49.662;8.408;2023-04-03T03:26:53;14.20;;;13.00;;
69172;SDS011;56280;49.662;8.408;2023-04-03T03:29:18;14.43;;;13.23;;
69172;SDS011;56280;49.662;8.408;2023-04-03T03:31:44;16.03;;;14.83;;
69172;SDS011;56280;49.662;8.408;2023-04-03T03:34:09;14.03;;;12.93;;
69172;SDS011;56280;49.662;8.408;2023-04-03T03:36:34;15.17;;;14.07;;
69172;SDS011;56280;49.662;8.408;2023-04-03T03:39:00;13.80;;;12.70;;
69172;SDS011;56280;49.662;8.408;2023-04-03T03:41:25;16.60;;;15.20;;
69172;SDS011;56280;49.662;8.408;2023-04-03T03:43:51;15.27;;;14.07;;
69172;SDS011;56280;49.662;8.408;2023-04-03T03:46:16;15.23;;;14.00;;
69172;SDS011;56280;49.662;8.408;2023-04-03T03:48:41;15.20;;;13.90;;
69172;SDS011;56280;49.662;8.408;2023-04-03T03:51:06;18.03;;;16.63;;
69172;SDS011;56280;49.662;8.408;2023-04-03T03:53:32;16.13;;;14.90;;
69172;SDS011;56280;49.662;8.408;2023-04-03T03:55:57;15.37;;;14.23;;
69172;SDS011;56280;49.662;8.408;2023-04-03T03:58:22;15.03;;;13.83;;
69172;SDS011;56280;49.662;8.408;2023-04-03T04:00:48;16.77;;;15.60;;
69172;SDS011;56280;49.662;8.408;2023-04-03T04:03:13;16.67;;;15.37;;
69172;SDS011;56280;49.662;8.408;2023-04-03T04:05:38;16.37;;;15.17;;
69172;SDS011;56280;49.662;8.408;2023-04-03T04:08:04;15.27;;;14.07;;
69172;SDS011;56280;49.662;8.408;2023-04-03T04:10:29;16.50;;;15.23;;
69172;SDS011;56280;49.662;8.408;2023-04-03T04:12:54;17.30;;;15.90;;
69172;SDS011;56280;49.662;8.408;2023-04-03T04:15:20;15.90;;;14.57;;
69172;SDS011;56280;49.662;8.408;2023-04-03T04:17:46;16.15;;;14.95;;
69172;SDS011;56280;49.662;8.408;2023-04-03T04:20:12;15.37;;;14.23;;
69172;SDS011;56280;49.662;8.408;2023-04-03T04:22:37;13.27;;;12.07;;
69172;SDS011;56280;49.662;8.408;2023-04-03T04:25:03;14.47;;;13.20;;
69172;SDS011;56280;49.662;8.408;2023-04-03T04:27:29;14.63;;;13.43;;
69172;SDS011;56280;49.662;8.408;2023-04-03T04:29:54;15.43;;;13.97;;
69172;SDS011;56280;49.662;8.408;2023-04-03T04:32:20;13.83;;;12.63;;
69172;SDS011;56280;49.662;8.408;2023-04-03T04:34:45;12.93;;;11.73;;
69172;SDS011;56280;49.662;8.408;2023-04-03T04:37:11;13.88;;;12.77;;
69172;SDS011;56280;49.662;8.408;2023-04-03T04:39:36;14.80;;;13.70;;
69172;SDS011;56280;49.662;8.408;2023-04-03T04:42:01;13.83;;;12.63;;
69172;SDS011;56280;49.662;8.408;2023-04-03T04:44:27;15.93;;;14.63;;
69172;SDS011;56280;49.662;8.408;2023-04-03T04:46:52;15.80;;;14.60;;
69172;SDS011;56280;49.662;8.408;2023-04-03T04:49:18;16.63;;;15.23;;
69172;SDS011;56280;49.662;8.408;2023-04-03T04:51:43;16.17;;;14.73;;
69172;SDS011;56280;49.662;8.408;2023-04-03T04:54:08;16.37;;;15.07;;
69172;SDS011;56280;49.662;8.408;2023-04-03T04:56:34;17.07;;;15.77;;
69172;SDS011;56280;49.662;8.408;2023-04-03T04:58:59;14.37;;;13.13;;
69172;SDS011;56280;49.662;8.408;2023-04-03T05:01:24;15.47;;;14.20;;
69172;SDS011;56280;49.662;8.408;2023-04-03T05:03:50;15.43;;;14.13;;
69172;SDS011;56280;49.662;8.408;2023-04-03T05:06:15;15.37;;;14.07;;
69172;SDS011;56280;49.662;8.408;2023-04-03T05:08:41;15.27;;;13.97;;
69172;SDS011;56280;49.662;8.408;2023-04-03T05:11:06;13.93;;;12.73;;
69172;SDS011;56280;49.662;8.408;2023-04-03T05:13:31;15.27;;;13.77;;
69172;SDS011;56280;49.662;8.408;2023-04-03T05:15:57;16.27;;;15.03;;
69172;SDS011;56280;49.662;8.408;2023-04-03T05:18:22;13.97;;;12.87;;
69172;SDS011;56280;49.662;8.408;2023-04-03T05:20:48;15.90;;;14.67;;
69172;SDS011;56280;49.662;8.408;2023-04-03T05:23:15;15.40;;;14.20;;
69172;SDS011;56280;49.662;8.408;2023-04-03T05:25:41;16.23;;;14.90;;
69172;SDS011;56280;49.662;8.408;2023-04-03T05:28:08;16.00;;;14.75;;
69172;SDS011;56280;49.662;8.408;2023-04-03T05:30:38;16.08;;;14.75;;
69172;SDS011;56280;49.662;8.408;2023-04-03T05:33:07;16.10;;;14.60;;
69172;SDS011;56280;49.662;8.408;2023-04-03T05:35:35;16.67;;;15.27;;
69172;SDS011;56280;49.662;8.408;2023-04-03T05:38:01;18.58;;;17.08;;
69172;SDS011;56280;49.662;8.408;2023-04-03T05:40:26;19.73;;;18.03;;
69172;SDS011;56280;49.662;8.408;2023-04-03T05:42:52;20.03;;;18.30;;
69172;SDS011;56280;49.662;8.408;2023-04-03T05:45:18;18.83;;;17.08;;
69172;SDS011;56280;49.662;8.408;2023-04-03T05:47:43;20.50;;;18.50;;
69172;SDS011;56280;49.662;8.408;2023-04-03T05:50:09;17.98;;;16.27;;
69172;SDS011;56280;49.662;8.408;2023-04-03T05:52:38;19.25;;;17.48;;
69172;SDS011;56280;49.662;8.408;2023-04-03T05:55:07;21.10;;;19.37;;
69172;SDS011;56280;49.662;8.408;2023-04-03T05:57:34;20.93;;;19.13;;
69172;SDS011;56280;49.662;8.408;2023-04-03T05:59:59;18.10;;;16.60;;
69172;SDS011;56280;49.662;8.408;2023-04-03T06:02:25;17.70;;;16.07;;
69172;SDS011;56280;49.662;8.408;2023-04-03T06:04:53;18.63;;;17.02;;
69172;SDS011;56280;49.662;8.408;2023-04-03T06:07:20;19.47;;;17.87;;
69172;SDS011;56280;49.662;8.408;2023-04-03T06:10:10;18.25;;;16.75;;
69172;SDS011;56280;49.662;8.408;2023-04-03T06:12:37;18.57;;;17.10;;
69172;SDS011;56280;49.662;8.408;2023-04-03T06:15:02;20.37;;;18.73;;
69172;SDS011;56280;49.662;8.408;2023-04-03T06:17:28;19.48;;;17.73;;
69172;SDS011;56280;49.662;8.408;2023-04-03T06:19:57;21.05;;;19.48;;
69172;SDS011;56280;49.662;8.408;2023-04-03T06:22:24;22.03;;;20.17;;
69172;SDS011;56280;49.662;8.408;2023-04-03T06:24:50;20.77;;;19.08;;
69172;SDS011;56280;49.662;8.408;2023-04-03T06:27:16;18.75;;;17.00;;
69172;SDS011;56280;49.662;8.408;2023-04-03T06:29:42;21.58;;;19.92;;
69172;SDS011;56280;49.662;8.408;2023-04-03T06:32:10;19.48;;;17.98;;
69172;SDS011;56280;49.662;8.408;2023-04-03T06:34:44;20.60;;;19.08;;
69172;SDS011;56280;49.662;8.408;2023-04-03T06:37:17;21.08;;;19.67;;
69172;SDS011;56280;49.662;8.408;2023-04-03T06:39:45;17.42;;;15.98;;
69172;SDS011;56280;49.662;8.408;2023-04-03T06:42:10;19.60;;;18.10;;
69172;SDS011;56280;49.662;8.408;2023-04-03T06:44:36;19.02;;;17.42;;
69172;SDS011;56280;49.662;8.408;2023-04-03T06:47:02;19.97;;;18.33;;
69172;SDS011;56280;49.662;8.408;2023-04-03T06:49:28;17.47;;;16.07;;
69172;SDS011;56280;49.662;8.408;2023-04-03T06:51:54;19.10;;;17.77;;
69172;SDS011;56280;49.662;8.408;2023-04-03T06:54:20;17.67;;;16.08;;
69172;SDS011;56280;49.662;8.408;2023-04-03T06:56:45;19.47;;;17.80;;
69172;SDS011;56280;49.662;8.408;2023-04-03T06:59:12;20.43;;;18.63;;
69172;SDS011;56280;49.662;8.408;2023-04-03T07:01:38;20.90;;;19.23;;
69172;SDS011;56280;49.662;8.408;2023-04-03T07:04:04;19.40;;;17.90;;
69172;SDS011;56280;49.662;8.408;2023-04-03T07:06:30;18.63;;;17.20;;
69172;SDS011;56280;49.662;8.408;2023-04-03T07:08:57;19.25;;;17.85;;
69172;SDS011;56280;49.662;8.408;2023-04-03T07:11:22;21.02;;;19.48;;
69172;SDS011;56280;49.662;8.408;2023-04-03T07:13:48;18.97;;;17.33;;
69172;SDS011;56280;49.662;8.408;2023-04-03T07:16:16;18.10;;;16.60;;
69172;SDS011;56280;49.662;8.408;2023-04-03T07:18:42;18.23;;;16.73;;
69172;SDS011;56280;49.662;8.408;2023-04-03T07:21:07;17.50;;;16.10;;
69172;SDS011;56280;49.662;8.408;2023-04-03T07:23:33;18.40;;;16.85;;
69172;SDS011;56280;49.662;8.408;2023-04-03T07:25:59;17.77;;;16.37;;
69172;SDS011;56280;49.662;8.408;2023-04-03T07:28:24;17.53;;;15.70;;
69172;SDS011;56280;49.662;8.408;2023-04-03T07:31:00;20.23;;;18.60;;
69172;SDS011;56280;49.662;8.408;2023-04-03T07:33:27;19.80;;;18.40;;
69172;SDS011;56280;49.662;8.408;2023-04-03T07:35:53;19.70;;;18.15;;
69172;SDS011;56280;49.662;8.408;2023-04-03T07:38:18;19.45;;;17.85;;
69172;SDS011;56280;49.662;8.408;2023-04-03T07:40:47;19.97;;;18.43;;
69172;SDS011;56280;49.662;8.408;2023-04-03T07:43:15;19.83;;;18.20;;
69172;SDS011;56280;49.662;8.408;2023-04-03T07:45:41;18.05;;;16.75;;
69172;SDS011;56280;49.662;8.408;2023-04-03T07:48:08;20.15;;;18.52;;
69172;SDS011;56280;49.662;8.408;2023-04-03T07:50:34;18.40;;;16.95;;
69172;SDS011;56280;49.662;8.408;2023-04-03T07:53:01;18.17;;;16.77;;
69172;SDS011;56280;49.662;8.408;2023-04-03T07:55:26;17.90;;;16.50;;
69172;SDS011;56280;49.662;8.408;2023-04-03T07:57:52;18.55;;;17.00;;
69172;SDS011;56280;49.662;8.408;2023-04-03T08:00:18;20.10;;;18.50;;
69172;SDS011;56280;49.662;8.408;2023-04-03T08:02:44;19.80;;;18.33;;
69172;SDS011;56280;49.662;8.408;2023-04-03T08:05:15;17.93;;;16.53;;
69172;SDS011;56280;49.662;8.408;2023-04-03T08:07:42;19.10;;;17.60;;
69172;SDS011;56280;49.662;8.408;2023-04-03T08:10:07;19.10;;;17.67;;
69172;SDS011;56280;49.662;8.408;2023-04-03T08:12:33;21.70;;;20.20;;
69172;SDS011;56280;49.662;8.408;2023-04-03T08:14:59;16.97;;;15.67;;
69172;SDS011;56280;49.662;8.408;2023-04-03T08:17:26;18.08;;;16.73;;
69172;SDS011;56280;49.662;8.408;2023-04-03T08:19:52;18.50;;;17.00;;
69172;SDS011;56280;49.662;8.408;2023-04-03T08:22:17;18.57;;;17.07;;
69172;SDS011;56280;49.662;8.408;2023-04-03T08:24:42;19.30;;;18.00;;
69172;SDS011;56280;49.662;8.408;2023-04-03T08:27:08;19.13;;;17.73;;
69172;SDS011;56280;49.662;8.408;2023-04-03T08:29:34;18.48;;;17.08;;
69172;SDS011;56280;49.662;8.408;2023-04-03T08:31:59;18.13;;;16.73;;
69172;SDS011;56280;49.662;8.408;2023-04-03T08:34:25;18.57;;;17.27;;
69172;SDS011;56280;49.662;8.408;2023-04-03T08:36:51;18.73;;;17.42;;
69172;SDS011;56280;49.662;8.408;2023-04-03T08:39:16;20.07;;;18.57;;
69172;SDS011;56280;49.662;8.408;2023-04-03T08:41:42;19.17;;;17.67;;
69172;SDS011;56280;49.662;8.408;2023-04-03T08:47:25;20.98;;;19.40;;
69172;SDS011;56280;49.662;8.408;2023-04-03T08:50:04;19.27;;;17.90;;
69172;SDS011;56280;49.662;8.408;2023-04-03T08:57:43;20.88;;;19.45;;
69172;SDS011;56280;49.662;8.408;2023-04-03T09:02:51;19.63;;;18.23;;
69172;SDS011;56280;49.662;8.408;2023-04-03T09:05:20;19.25;;;17.95;;
69172;SDS011;56280;49.662;8.408;2023-04-03T09:11:13;16.85;;;15.65;;
69172;SDS011;56280;49.662;8.408;2023-04-03T09:19:49;19.02;;;17.83;;
69172;SDS011;56280;49.662;8.408;2023-04-03T09:21:53;19.67;;;18.17;;
69172;SDS011;56280;49.662;8.408;2023-04-03T09:24:22;17.30;;;16.08;;
69172;SDS011;56280;49.662;8.408;2023-04-03T09:29:27;15.15;;;14.00;;
69172;SDS011;56280;49.662;8.408;2023-04-03T09:31:56;18.53;;;17.33;;
69172;SDS011;56280;49.662;8.408;2023-04-03T09:34:28;18.80;;;17.57;;
69172;SDS011;56280;49.662;8.408;2023-04-03T09:36:57;17.50;;;16.30;;
69172;SDS011;56280;49.662;8.408;2023-04-03T09:39:30;18.00;;;16.80;;
69172;SDS011;56280;49.662;8.408;2023-04-03T09:44:32;17.47;;;16.27;;
69172;SDS011;56280;49.662;8.408;2023-04-03T09:47:00;19.65;;;18.17;;
69172;SDS011;56280;49.662;8.408;2023-04-03T09:49:43;18.15;;;16.85;;
69172;SDS011;56280;49.662;8.408;2023-04-03T09:52:24;20.20;;;18.80;;
69172;SDS011;56280;49.662;8.408;2023-04-03T09:54:51;19.95;;;18.60;;
69172;SDS011;56280;49.662;8.408;2023-04-03T09:57:16;15.47;;;14.47;;
69172;SDS011;56280;49.662;8.408;2023-04-03T09:59:58;19.75;;;18.30;;
69172;SDS011;56280;49.662;8.408;2023-04-03T10:02:38;16.88;;;15.68;;
69172;SDS011;56280;49.662;8.408;2023-04-03T10:05:24;16.67;;;15.48;;
69172;SDS011;56280;49.662;8.408;2023-04-03T10:10:43;17.58;;;16.40;;
69172;SDS011;56280;49.662;8.408;2023-04-03T10:13:11;19.25;;;17.95;;
69172;SDS011;56280;49.662;8.408;2023-04-03T10:15:43;17.30;;;16.13;;
69172;SDS011;56280;49.662;8.408;2023-04-03T10:20:51;16.25;;;15.15;;
69172;SDS011;56280;49.662;8.408;2023-04-03T10:29:23;18.27;;;17.08;;
69172;SDS011;56280;49.662;8.408;2023-04-03T10:34:21;15.75;;;14.82;;
69172;SDS011;56280;49.662;8.408;2023-04-03T10:39:38;17.92;;;16.73;;
69172;SDS011;56280;49.662;8.408;2023-04-03T10:48:26;17.58;;;16.33;;
69172;SDS011;56280;49.662;8.408;2023-04-03T10:51:10;16.93;;;15.73;;
69172;SDS011;56280;49.662;8.408;2023-04-03T10:54:08;19.42;;;18.10;;
69172;SDS011;56280;49.662;8.408;2023-04-03T10:56:41;19.70;;;18.40;;
69172;SDS011;56280;49.662;8.408;2023-04-03T10:59:18;17.95;;;16.75;;
69172;SDS011;56280;49.662;8.408;2023-04-03T11:01:57;16.88;;;15.77;;
69172;SDS011;56280;49.662;8.408;2023-04-03T11:04:27;17.97;;;16.83;;
69172;SDS011;56280;49.662;8.408;2023-04-03T11:07:04;19.15;;;17.95;;
69172;SDS011;56280;49.662;8.408;2023-04-03T11:09:37;16.58;;;15.48;;
69172;SDS011;56280;49.662;8.408;2023-04-03T11:12:28;18.27;;;17.08;;
69172;SDS011;56280;49.662;8.408;2023-04-03T11:15:11;19.80;;;18.30;;
69172;SDS011;56280;49.662;8.408;2023-04-03T11:17:41;18.53;;;17.33;;
69172;SDS011;56280;49.662;8.408;2023-04-03T11:20:16;19.40;;;18.08;;
69172;SDS011;56280;49.662;8.408;2023-04-03T11:22:50;19.42;;;18.13;;
69172;SDS011;56280;49.662;8.408;2023-04-03T11:25:29;22.08;;;20.67;;
69172;SDS011;56280;49.662;8.408;2023-04-03T11:28:01;17.33;;;16.15;;
69172;SDS011;56280;49.662;8.408;2023-04-03T11:30:49;17.47;;;16.37;;
69172;SDS011;56280;49.662;8.408;2023-04-03T11:33:49;17.73;;;16.63;;
69172;SDS011;56280;49.662;8.408;2023-04-03T11:38:57;18.03;;;16.83;;
69172;SDS011;56280;49.662;8.408;2023-04-03T11:41:30;18.90;;;17.48;;
69172;SDS011;56280;49.662;8.408;2023-04-03T11:44:01;18.33;;;17.17;;
69172;SDS011;56280;49.662;8.408;2023-04-03T11:55:41;20.42;;;19.02;;
69172;SDS011;56280;49.662;8.408;2023-04-03T11:58:13;17.40;;;16.05;;
69172;SDS011;56280;49.662;8.408;2023-04-03T12:00:55;17.67;;;16.40;;
69172;SDS011;56280;49.662;8.408;2023-04-03T12:03:56;16.65;;;15.45;;
69172;SDS011;56280;49.662;8.408;2023-04-03T12:08:58;18.13;;;16.85;;
69172;SDS011;56280;49.662;8.408;2023-04-03T12:11:28;18.37;;;17.13;;
69172;SDS011;56280;49.662;8.408;2023-04-03T12:24:26;18.80;;;17.50;;
69172;SDS011;56280;49.662;8.408;2023-04-03T12:43:31;19.08;;;17.88;;
69172;SDS011;56280;49.662;8.408;2023-04-03T12:46:02;20.23;;;18.92;;
69172;SDS011;56280;49.662;8.408;2023-04-03T12:48:30;18.90;;;17.70;;
69172;SDS011;56280;49.662;8.408;2023-04-03T12:50:59;17.48;;;16.33;;
69172;SDS011;56280;49.662;8.408;2023-04-03T12:53:26;18.80;;;17.55;;
69172;SDS011;56280;49.662;8.408;2023-04-03T12:56:18;19.63;;;18.23;;
69172;SDS011;56280;49.662;8.408;2023-04-03T12:58:51;19.90;;;18.52;;
69172;SDS011;56280;49.662;8.408;2023-04-03T13:01:20;18.35;;;17.25;;
69172;SDS011;56280;49.662;8.408;2023-04-03T13:03:48;18.02;;;16.80;;
69172;SDS011;56280;49.662;8.408;2023-04-03T13:06:18;17.80;;;16.60;;
69172;SDS011;56280;49.662;8.408;2023-04-03T13:08:53;19.60;;;18.15;;
69172;SDS011;56280;49.662;8.408;2023-04-03T13:11:36;19.60;;;18.30;;
69172;SDS011;56280;49.662;8.408;2023-04-03T13:14:12;17.80;;;16.50;;
69172;SDS011;56280;49.662;8.408;2023-04-03T13:16:40;17.95;;;16.83;;
69172;SDS011;56280;49.662;8.408;2023-04-03T13:19:14;15.80;;;14.80;;
69172;SDS011;56280;49.662;8.408;2023-04-03T13:21:41;20.45;;;19.15;;
69172;SDS011;56280;49.662;8.408;2023-04-03T13:24:08;19.27;;;18.08;;
69172;SDS011;56280;49.662;8.408;2023-04-03T13:26:34;18.13;;;16.95;;
69172;SDS011;56280;49.662;8.408;2023-04-03T13:29:04;19.53;;;18.23;;
69172;SDS011;56280;49.662;8.408;2023-04-03T13:31:36;21.08;;;19.75;;
69172;SDS011;56280;49.662;8.408;2023-04-03T13:34:09;19.10;;;17.90;;
69172;SDS011;56280;49.662;8.408;2023-04-03T13:36:40;19.02;;;17.73;;
69172;SDS011;56280;49.662;8.408;2023-04-03T13:41:43;19.60;;;18.40;;
69172;SDS011;56280;49.662;8.408;2023-04-03T13:46:51;19.98;;;18.77;;
69172;SDS011;56280;49.662;8.408;2023-04-03T13:52:01;20.42;;;19.02;;
69172;SDS011;56280;49.662;8.408;2023-04-03T13:54:47;22.77;;;21.27;;
69172;SDS011;56280;49.662;8.408;2023-04-03T13:57:24;16.42;;;15.43;;
69172;SDS011;56280;49.662;8.408;2023-04-03T13:59:51;19.15;;;18.05;;
69172;SDS011;56280;49.662;8.408;2023-04-03T14:04:56;20.23;;;18.93;;
69172;SDS011;56280;49.662;8.408;2023-04-03T14:07:26;19.17;;;17.98;;
69172;SDS011;56280;49.662;8.408;2023-04-03T14:09:54;19.17;;;18.08;;
69172;SDS011;56280;49.662;8.408;2023-04-03T14:14:52;18.27;;;17.17;;
69172;SDS011;56280;49.662;8.408;2023-04-03T14:17:19;21.77;;;20.47;;
69172;SDS011;56280;49.662;8.408;2023-04-03T14:19:47;20.20;;;18.98;;
69172;SDS011;56280;49.662;8.408;2023-04-03T14:22:23;17.88;;;16.77;;
69172;SDS011;56280;49.662;8.408;2023-04-03T14:24:52;19.88;;;18.67;;
69172;SDS011;56280;49.662;8.408;2023-04-03T14:29:48;21.23;;;19.93;;
69172;SDS011;56280;49.662;8.408;2023-04-03T14:32:16;20.00;;;18.70;;
69172;SDS011;56280;49.662;8.408;2023-04-03T14:34:42;18.13;;;17.00;;
69172;SDS011;56280;49.662;8.408;2023-04-03T14:37:10;19.90;;;18.60;;
69172;SDS011;56280;49.662;8.408;2023-04-03T14:39:43;19.83;;;18.52;;
69172;SDS011;56280;49.662;8.408;2023-04-03T14:42:13;18.75;;;17.65;;
69172;SDS011;56280;49.662;8.408;2023-04-03T14:44:41;18.40;;;17.23;;
69172;SDS011;56280;49.662;8.408;2023-04-03T14:47:09;17.37;;;16.27;;
69172;SDS011;56280;49.662;8.408;2023-04-03T14:49:36;17.58;;;16.30;;
69172;SDS011;56280;49.662;8.408;2023-04-03T14:52:01;17.80;;;16.65;;
69172;SDS011;56280;49.662;8.408;2023-04-03T14:54:27;17.80;;;16.70;;
69172;SDS011;56280;49.662;8.408;2023-04-03T14:56:54;18.65;;;17.55;;
69172;SDS011;56280;49.662;8.408;2023-04-03T14:59:20;21.70;;;20.40;;
69172;SDS011;56280;49.662;8.408;2023-04-03T15:01:46;18.58;;;17.38;;
69172;SDS011;56280;49.662;8.408;2023-04-03T15:04:16;19.60;;;18.38;;
69172;SDS011;56280;49.662;8.408;2023-04-03T15:06:44;16.52;;;15.45;;
69172;SDS011;56280;49.662;8.408;2023-04-03T15:11:48;18.27;;;17.08;;
69172;SDS011;56280;49.662;8.408;2023-04-03T15:14:17;17.95;;;16.85;;
69172;SDS011;56280;49.662;8.408;2023-04-03T15:16:43;14.87;;;13.87;;
69172;SDS011;56280;49.662;8.408;2023-04-03T15:19:09;18.58;;;17.48;;
69172;SDS011;56280;49.662;8.408;2023-04-03T15:21:35;20.70;;;19.50;;
69172;SDS011;56280;49.662;8.408;2023-04-03T15:24:01;16.40;;;15.40;;
69172;SDS011;56280;49.662;8.408;2023-04-03T15:26:26;17.37;;;16.17;;
69172;SDS011;56280;49.662;8.408;2023-04-03T15:28:51;17.33;;;16.13;;
69172;SDS011;56280;49.662;8.408;2023-04-03T15:31:17;18.07;;;16.87;;
69172;SDS011;56280;49.662;8.408;2023-04-03T15:33:42;17.30;;;16.30;;
69172;SDS011;56280;49.662;8.408;2023-04-03T15:36:07;20.37;;;19.10;;
69172;SDS011;56280;49.662;8.408;2023-04-03T15:38:33;17.27;;;16.10;;
69172;SDS011;56280;49.662;8.408;2023-04-03T15:40:59;16.85;;;15.80;;
69172;SDS011;56280;49.662;8.408;2023-04-03T15:43:24;20.43;;;19.23;;
69172;SDS011;56280;49.662;8.408;2023-04-03T15:45:50;19.43;;;18.23;;
69172;SDS011;56280;49.662;8.408;2023-04-03T15:48:16;20.03;;;18.83;;
69172;SDS011;56280;49.662;8.408;2023-04-03T15:50:41;18.60;;;17.40;;
69172;SDS011;56280;49.662;8.408;2023-04-03T15:53:07;17.07;;;15.97;;
69172;SDS011;56280;49.662;8.408;2023-04-03T15:55:34;19.47;;;18.27;;
69172;SDS011;56280;49.662;8.408;2023-04-03T15:58:02;19.47;;;18.37;;
69172;SDS011;56280;49.662;8.408;2023-04-03T16:00:28;19.02;;;17.83;;
69172;SDS011;56280;49.662;8.408;2023-04-03T16:03:02;15.93;;;14.82;;
69172;SDS011;56280;49.662;8.408;2023-04-03T16:05:30;19.45;;;18.25;;
69172;SDS011;56280;49.662;8.408;2023-04-03T16:07:56;17.33;;;16.33;;
69172;SDS011;56280;49.662;8.408;2023-04-03T16:10:25;21.90;;;20.60;;
69172;SDS011;56280;49.662;8.408;2023-04-03T16:12:50;17.77;;;16.67;;
69172;SDS011;56280;49.662;8.408;2023-04-03T16:15:15;19.13;;;17.93;;
69172;SDS011;56280;49.662;8.408;2023-04-03T16:17:41;18.70;;;17.48;;
69172;SDS011;56280;49.662;8.408;2023-04-03T16:20:06;18.70;;;17.50;;